Mrs.sippi — DA6107 — position and weather

sailwx.info

Track history (hours):
 
Tides and Currents Weather Stations Pressure Air Temp Water Temp Dewpoint Dewpoint Depression Visibility Wind Speed Wind Dir Waves Ship Positions

Mrs.sippi

Last reported at 2018-Jul-20 15:14 UTC. Time now 2018-Jul-22 19:48 UTC.
Position N 43°23' E 004°56'.

Length 10 m.

Type: Sailing vessel. MMSI: 211195660.

Date/timePositionNaut miles runAvg speedWind from/ knotsBaromVisibWave heightAir tempDewpointWater temp
2018-Jul-20 15:14N 43°23' E 004°56'1 5.4
2018-Jul-20 14:59N 43°23' E 004°57'3 5.6
2018-Jul-20 14:30N 43°21' E 004°60'  
2018-Jul-13 13:15N 43°27' E 006°58'1 5.1
2018-Jul-13 13:00N 43°28' E 006°60'3 5.3
2018-Jul-13 12:27N 43°29' E 007°03'4 5.6
2018-Jul-13 11:44N 43°31' E 007°08'17 5.5
2018-Jul-13 08:43N 43°43' E 007°25'1 5.7
2018-Jul-13 08:30N 43°43' E 007°26'  
Track history (hours):
 
Tides and Currents Weather Stations Pressure Air Temp Water Temp Dewpoint Dewpoint Depression Visibility Wind Speed Wind Dir Waves Ship Positions

Mrs.sippi

Last reported at 2018-Jul-20 15:14 UTC. Time now 2018-Jul-22 19:48 UTC.
Position N 43°23' E 004°56'.

Length 10 m.

Type: Sailing vessel. MMSI: 211195660.

Date/timePositionNaut miles runAvg speedWind from/ knotsBaromVisibWave heightAir tempDewpointWater temp
2018-Jul-20 15:14N 43°23' E 004°56'1 5.4
2018-Jul-20 14:59N 43°23' E 004°57'3 5.6
2018-Jul-20 14:30N 43°21' E 004°60'  
2018-Jul-13 13:15N 43°27' E 006°58'1 5.1
2018-Jul-13 13:00N 43°28' E 006°60'3 5.3
2018-Jul-13 12:27N 43°29' E 007°03'4 5.6
2018-Jul-13 11:44N 43°31' E 007°08'17 5.5
2018-Jul-13 08:43N 43°43' E 007°25'1 5.7
2018-Jul-13 08:30N 43°43' E 007°26'  

Dump ship's entire track history